createdAt,value
2018-11-05T00:00:21.841Z,11.70
2018-11-05T00:02:52.843Z,11.70
2018-11-05T00:05:27.082Z,11.70
2018-11-05T00:07:57.101Z,11.70
2018-11-05T00:10:27.161Z,11.70
2018-11-05T00:12:57.400Z,11.60
2018-11-05T00:15:27.320Z,11.60
2018-11-05T00:17:57.460Z,11.60
2018-11-05T00:20:32.481Z,11.60
2018-11-05T00:23:04.163Z,11.60
2018-11-05T00:25:36.442Z,11.50
2018-11-05T00:28:08.121Z,11.50
2018-11-05T00:30:40.481Z,11.50
2018-11-05T00:33:11.720Z,11.60
2018-11-05T00:35:44.239Z,11.60
2018-11-05T00:38:16.722Z,11.60
2018-11-05T00:40:48.698Z,11.50
2018-11-05T00:43:20.078Z,11.50
2018-11-05T00:46:24.479Z,11.40
2018-11-05T00:48:55.079Z,11.40
2018-11-05T00:51:25.178Z,11.30
2018-11-05T00:53:55.359Z,11.20
2018-11-05T00:56:25.438Z,11.20
2018-11-05T00:58:55.198Z,11.20
2018-11-05T01:01:25.321Z,11.20
2018-11-05T01:03:55.344Z,11.30
2018-11-05T01:06:26.581Z,11.30
2018-11-05T01:08:56.543Z,11.30
2018-11-05T01:11:26.421Z,11.20
2018-11-05T01:13:56.524Z,11.20
2018-11-05T01:16:26.341Z,11.30
2018-11-05T01:18:56.610Z,11.20
2018-11-05T01:21:26.462Z,11.30
2018-11-05T01:23:56.309Z,11.20
2018-11-05T01:26:27.121Z,11.20
2018-11-05T01:29:00.961Z,11.10
2018-11-05T01:31:30.702Z,11.10
2018-11-05T01:34:01.184Z,11.10
2018-11-05T01:36:31.184Z,11.10
2018-11-05T01:39:01.262Z,11.10
2018-11-05T01:41:32.942Z,11.10
2018-11-05T01:44:03.022Z,11.10
2018-11-05T01:46:33.122Z,11.10
2018-11-05T01:49:02.944Z,11.10
2018-11-05T01:51:37.561Z,11.10
2018-11-05T01:54:07.449Z,11.10
2018-11-05T01:56:39.345Z,11.10
2018-11-05T01:59:09.322Z,11.10
2018-11-05T02:01:39.102Z,11.10
2018-11-05T02:04:09.042Z,11.10
2018-11-05T02:06:39.142Z,11.10
2018-11-05T02:09:10.201Z,11.10
2018-11-05T02:11:40.562Z,11.10
2018-11-05T02:14:10.402Z,11.10
2018-11-05T02:16:40.246Z,11.10
2018-11-05T02:19:15.721Z,11.00
2018-11-05T02:21:45.719Z,11.00
2018-11-05T02:24:15.780Z,11.00
2018-11-05T02:26:48.066Z,11.10
2018-11-05T02:29:30.600Z,11.00
2018-11-05T02:32:00.420Z,11.00
2018-11-05T02:34:30.300Z,11.00
2018-11-05T02:37:00.080Z,11.00
2018-11-05T02:39:30.500Z,11.00
2018-11-05T02:42:00.719Z,11.10
2018-11-05T02:44:30.860Z,11.10
2018-11-05T02:47:00.620Z,11.10
2018-11-05T02:49:30.700Z,11.10
2018-11-05T02:52:00.780Z,11.10
2018-11-05T02:54:30.900Z,11.10
2018-11-05T02:57:00.940Z,11.10
2018-11-05T02:59:30.920Z,11.00
2018-11-05T03:02:00.783Z,11.00
2018-11-05T03:04:30.920Z,11.10
2018-11-05T03:07:00.941Z,11.00
2018-11-05T03:09:32.401Z,11.10
2018-11-05T03:12:02.381Z,11.00
2018-11-05T03:14:32.220Z,11.00
2018-11-05T03:17:02.680Z,11.00
2018-11-05T03:19:32.940Z,11.10
2018-11-05T03:22:03.000Z,11.00
2018-11-05T03:24:32.780Z,11.10
2018-11-05T03:27:02.780Z,11.00
2018-11-05T03:29:32.621Z,11.10
2018-11-05T03:32:02.380Z,11.10
2018-11-05T03:34:32.501Z,11.10
2018-11-05T03:37:02.821Z,11.10
2018-11-05T03:39:33.901Z,11.10
2018-11-05T03:42:03.761Z,11.10
2018-11-05T03:44:33.700Z,11.10
2018-11-05T03:47:05.661Z,11.10
2018-11-05T03:49:35.821Z,11.00
2018-11-05T03:52:06.291Z,11.10
2018-11-05T03:54:36.301Z,11.10
2018-11-05T03:57:14.361Z,11.00
2018-11-05T03:59:44.321Z,11.10
2018-11-05T04:02:14.521Z,11.10
2018-11-05T04:04:45.838Z,11.10
2018-11-05T04:07:15.658Z,11.00
2018-11-05T04:09:45.698Z,11.00
2018-11-05T04:12:15.501Z,11.00
2018-11-05T04:14:45.579Z,11.00
2018-11-05T04:17:15.718Z,11.00
2018-11-05T04:19:46.023Z,11.00
2018-11-05T04:22:16.220Z,11.00
2018-11-05T04:24:50.379Z,11.00
2018-11-05T04:27:20.099Z,11.00
2018-11-05T04:29:50.538Z,11.00
2018-11-05T04:32:20.899Z,11.00
2018-11-05T04:34:50.720Z,11.00
2018-11-05T04:37:20.798Z,10.90
2018-11-05T04:39:51.139Z,11.00
2018-11-05T04:42:22.247Z,11.00
2018-11-05T04:44:52.238Z,10.90
2018-11-05T04:47:22.439Z,11.00
2018-11-05T04:49:58.660Z,11.00
2018-11-05T04:52:29.922Z,11.00
2018-11-05T04:54:59.939Z,10.90
2018-11-05T04:57:30.081Z,11.00
2018-11-05T05:00:04.079Z,11.00
2018-11-05T05:02:34.269Z,11.00
2018-11-05T05:05:04.660Z,10.90
2018-11-05T05:07:34.881Z,10.90
2018-11-05T05:10:05.266Z,11.00
2018-11-05T05:12:35.121Z,10.90
2018-11-05T05:15:06.721Z,10.90
2018-11-05T05:17:36.421Z,10.90
2018-11-05T05:20:11.101Z,10.90
2018-11-05T05:22:41.330Z,11.00
2018-11-05T05:25:11.200Z,11.00
2018-11-05T05:27:41.220Z,11.00
2018-11-05T05:30:14.543Z,11.00
2018-11-05T05:32:45.284Z,11.00
2018-11-05T05:35:15.719Z,11.00
2018-11-05T05:37:45.460Z,11.00
2018-11-05T05:40:15.399Z,11.00
2018-11-05T05:42:45.582Z,11.00
2018-11-05T05:45:15.722Z,11.00
2018-11-05T05:47:46.060Z,11.00
2018-11-05T05:50:17.847Z,11.00
2018-11-05T05:52:49.419Z,11.00
2018-11-05T05:55:19.619Z,11.00
2018-11-05T05:57:49.419Z,11.00
2018-11-05T06:00:21.264Z,11.00
2018-11-05T06:02:51.749Z,11.00
2018-11-05T06:05:21.781Z,11.00
2018-11-05T06:07:51.521Z,11.00
2018-11-05T06:10:21.262Z,11.00
2018-11-05T06:12:51.241Z,11.00
2018-11-05T06:15:21.424Z,11.00
2018-11-05T06:17:51.461Z,11.00
2018-11-05T06:20:22.940Z,11.00
2018-11-05T06:22:53.901Z,11.00
2018-11-05T06:25:23.642Z,11.00
2018-11-05T06:27:53.339Z,11.00
2018-11-05T06:30:24.579Z,11.00
2018-11-05T06:32:54.580Z,11.00
2018-11-05T06:35:24.748Z,11.00
2018-11-05T06:37:54.663Z,11.00
2018-11-05T06:40:24.559Z,11.00
2018-11-05T06:42:54.378Z,11.10
2018-11-05T06:45:24.644Z,11.10
2018-11-05T06:47:54.759Z,11.10
2018-11-05T06:50:26.700Z,11.10
2018-11-05T06:52:57.170Z,11.10
2018-11-05T06:55:26.862Z,11.10
2018-11-05T06:57:56.524Z,11.10
2018-11-05T07:00:27.493Z,11.10
2018-11-05T07:02:57.437Z,11.10
2018-11-05T07:05:35.539Z,11.10
2018-11-05T07:08:05.188Z,11.20
2018-11-05T07:10:34.814Z,11.20
2018-11-05T07:13:04.382Z,11.20
2018-11-05T07:15:34.161Z,11.20
2018-11-05T07:18:08.543Z,11.20
2018-11-05T07:20:43.409Z,11.30
2018-11-05T07:23:13.032Z,11.30
2018-11-05T07:25:51.089Z,11.30
2018-11-05T07:28:20.574Z,11.40
2018-11-05T07:30:55.643Z,11.30
2018-11-05T07:33:25.632Z,11.30
2018-11-05T07:35:55.819Z,11.30
2018-11-05T07:38:25.677Z,11.30
2018-11-05T07:40:55.637Z,11.30
2018-11-05T07:43:25.538Z,11.30
2018-11-05T07:46:11.219Z,11.30
2018-11-05T07:48:41.270Z,11.50
2018-11-05T07:51:11.319Z,11.40
2018-11-05T07:53:41.439Z,11.40
2018-11-05T07:56:11.193Z,11.40
2018-11-05T07:58:41.261Z,11.40
2018-11-05T08:01:11.358Z,11.40
2018-11-05T08:03:41.418Z,11.30
2018-11-05T08:06:11.820Z,11.40
2018-11-05T08:08:41.998Z,11.50
2018-11-05T08:11:12.238Z,11.40
2018-11-05T08:13:42.060Z,11.50
2018-11-05T08:16:12.358Z,11.50
2018-11-05T08:18:42.618Z,11.60
2018-11-05T08:21:12.726Z,11.70
2018-11-05T08:23:43.180Z,11.80
2018-11-05T08:26:13.978Z,11.90
2018-11-05T08:28:44.224Z,11.90
2018-11-05T08:31:14.538Z,11.80
2018-11-05T08:33:46.280Z,11.80
2018-11-05T08:36:16.181Z,11.90
2018-11-05T08:41:20.041Z,11.90
2018-11-05T08:43:50.221Z,11.90
2018-11-05T08:46:20.260Z,12.10
2018-11-05T08:48:50.127Z,12.10
2018-11-05T08:51:20.484Z,12.20
2018-11-05T08:53:50.325Z,12.30
2018-11-05T08:56:20.159Z,12.40
2018-11-05T08:58:50.219Z,12.30
2018-11-05T09:01:20.191Z,12.30
2018-11-05T09:03:51.172Z,12.30
2018-11-05T09:06:21.185Z,12.30
2018-11-05T09:08:51.704Z,12.30
2018-11-05T09:11:26.595Z,12.30
2018-11-05T09:13:56.104Z,12.30
2018-11-05T09:16:26.063Z,12.40
2018-11-05T09:18:55.844Z,12.30
2018-11-05T09:21:25.623Z,12.40
2018-11-05T09:23:59.464Z,12.40
2018-11-05T09:26:30.184Z,12.40
2018-11-05T09:29:00.304Z,12.30
2018-11-05T09:31:30.004Z,12.30
2018-11-05T09:33:59.804Z,12.30
2018-11-05T09:36:31.066Z,12.40
2018-11-05T09:39:02.627Z,12.40
2018-11-05T09:41:32.340Z,12.50
2018-11-05T09:44:02.780Z,12.60
2018-11-05T09:46:32.741Z,12.70
2018-11-05T09:49:02.800Z,12.70
2018-11-05T09:51:32.961Z,12.80
2018-11-05T09:54:02.900Z,12.90
2018-11-05T09:56:32.981Z,13.00
2018-11-05T09:59:02.860Z,13.10
2018-11-05T10:01:33.522Z,13.10
2018-11-05T10:04:03.928Z,13.00
2018-11-05T10:06:34.042Z,13.00
2018-11-05T10:09:04.002Z,13.00
2018-11-05T10:11:33.742Z,13.00
2018-11-05T10:14:03.961Z,12.90
2018-11-05T10:19:22.702Z,12.90
2018-11-05T10:21:52.882Z,12.90
2018-11-05T10:24:22.752Z,12.90
2018-11-05T10:26:53.920Z,12.90
2018-11-05T10:29:24.061Z,12.90
2018-11-05T10:31:53.740Z,12.90
2018-11-05T10:34:30.383Z,13.00
2018-11-05T10:37:00.640Z,13.10
2018-11-05T10:39:30.521Z,13.20
2018-11-05T10:42:00.441Z,13.20
2018-11-05T10:44:30.222Z,13.20
2018-11-05T10:47:00.046Z,13.20
2018-11-05T10:49:30.105Z,13.30
2018-11-05T10:52:00.224Z,13.40
2018-11-05T10:54:29.803Z,13.30
2018-11-05T10:57:00.044Z,13.30
2018-11-05T10:59:30.240Z,13.30
2018-11-05T11:02:05.624Z,13.40
2018-11-05T11:04:36.644Z,13.40
2018-11-05T11:07:11.224Z,13.40
2018-11-05T11:09:41.220Z,13.40
2018-11-05T11:12:10.994Z,13.40
2018-11-05T11:14:41.105Z,13.30
2018-11-05T11:17:10.588Z,13.20
2018-11-05T11:19:47.763Z,13.20
2018-11-05T11:22:17.722Z,13.20
2018-11-05T11:24:48.143Z,13.30
2018-11-05T11:27:22.823Z,13.30
2018-11-05T11:29:52.784Z,13.40
2018-11-05T11:32:23.504Z,13.40
2018-11-05T11:34:57.764Z,13.30
2018-11-05T11:37:27.844Z,13.20
2018-11-05T11:39:57.683Z,13.20
2018-11-05T11:42:27.984Z,13.30
2018-11-05T11:44:58.223Z,13.30
2018-11-05T11:47:27.903Z,13.20
2018-11-05T11:50:02.644Z,13.30
2018-11-05T11:52:32.832Z,13.30
2018-11-05T11:55:03.078Z,13.40
2018-11-05T11:57:33.483Z,13.50
2018-11-05T12:00:03.423Z,13.60
2018-11-05T12:02:33.483Z,13.70
2018-11-05T12:05:03.143Z,13.70
2018-11-05T12:07:33.180Z,13.70
2018-11-05T12:10:04.564Z,13.70
2018-11-05T12:12:35.040Z,13.70
2018-11-05T12:15:04.985Z,13.70
2018-11-05T12:17:34.901Z,13.70
2018-11-05T12:20:04.616Z,13.70
2018-11-05T12:22:36.940Z,13.80
2018-11-05T12:25:07.119Z,13.80
2018-11-05T12:27:37.420Z,13.80
2018-11-05T12:30:12.680Z,13.80
2018-11-05T12:32:43.001Z,13.80
2018-11-05T12:35:14.021Z,13.80
2018-11-05T12:37:44.960Z,13.70
2018-11-05T12:40:17.041Z,13.70
2018-11-05T12:42:48.344Z,13.70
2018-11-05T12:45:18.242Z,13.60
2018-11-05T12:47:48.720Z,13.60
2018-11-05T12:50:23.210Z,13.60
2018-11-05T12:52:54.420Z,13.60
2018-11-05T12:55:24.579Z,13.60
2018-11-05T12:57:54.380Z,13.60
2018-11-05T13:00:25.663Z,13.60
2018-11-05T13:02:58.069Z,13.60
2018-11-05T13:05:29.152Z,13.50
2018-11-05T13:07:59.789Z,13.50
2018-11-05T13:10:29.928Z,13.40
2018-11-05T13:13:00.084Z,13.40
2018-11-05T13:15:30.069Z,13.40
2018-11-05T13:18:00.150Z,13.40
2018-11-05T13:20:29.951Z,13.40
2018-11-05T13:23:00.797Z,13.40
2018-11-05T13:25:36.581Z,13.40
2018-11-05T13:28:10.964Z,13.40
2018-11-05T13:30:41.120Z,13.30
2018-11-05T13:33:12.120Z,13.40
2018-11-05T13:35:42.360Z,13.40
2018-11-05T13:38:12.845Z,13.40
2018-11-05T13:40:42.220Z,13.40
2018-11-05T13:43:12.150Z,13.50
2018-11-05T13:45:42.193Z,13.40
2018-11-05T13:48:16.138Z,13.30
2018-11-05T13:50:45.823Z,13.20
2018-11-05T13:53:16.360Z,13.10
2018-11-05T13:55:46.307Z,13.00
2018-11-05T13:58:21.148Z,13.00
2018-11-05T14:00:51.049Z,12.90
2018-11-05T14:03:28.800Z,12.90
2018-11-05T14:05:59.002Z,12.90
2018-11-05T14:08:28.963Z,13.00
2018-11-05T14:10:59.354Z,13.00
2018-11-05T14:13:29.228Z,12.90
2018-11-05T14:15:58.959Z,13.00
2018-11-05T14:18:29.045Z,13.00
2018-11-05T14:20:58.872Z,13.00
2018-11-05T14:23:34.819Z,13.00
2018-11-05T14:26:04.803Z,13.00
2018-11-05T14:28:39.119Z,12.90
2018-11-05T14:31:08.967Z,12.90
2018-11-05T14:33:54.946Z,13.00
2018-11-05T14:36:25.066Z,12.90
2018-11-05T14:38:55.279Z,12.90
2018-11-05T14:41:25.060Z,12.90
2018-11-05T14:43:54.900Z,12.90
2018-11-05T14:46:25.029Z,12.90
2018-11-05T14:48:54.815Z,12.90
2018-11-05T14:51:24.881Z,12.90
2018-11-05T14:53:54.622Z,12.80
2018-11-05T14:56:24.642Z,12.80
2018-11-05T14:58:55.038Z,12.80
2018-11-05T15:01:25.279Z,12.80
2018-11-05T15:03:55.142Z,12.80
2018-11-05T15:06:25.169Z,12.80
2018-11-05T15:08:55.187Z,12.80
2018-11-05T15:11:25.079Z,12.80
2018-11-05T15:14:03.305Z,12.80
2018-11-05T15:16:33.599Z,12.80
2018-11-05T15:19:04.456Z,12.70
2018-11-05T15:21:34.078Z,12.70
2018-11-05T15:24:09.527Z,12.60
2018-11-05T15:26:39.727Z,12.60
2018-11-05T15:29:09.501Z,12.60
2018-11-05T15:31:39.662Z,12.60
2018-11-05T15:34:10.236Z,12.50
2018-11-05T15:36:40.607Z,12.50
2018-11-05T15:39:10.699Z,12.50
2018-11-05T15:41:41.160Z,12.50
2018-11-05T15:44:11.396Z,12.50
2018-11-05T15:46:41.271Z,12.50
2018-11-05T15:49:11.064Z,12.50
2018-11-05T15:51:46.303Z,12.50
2018-11-05T15:54:16.456Z,12.50
2018-11-05T15:56:46.667Z,12.40
2018-11-05T15:59:17.489Z,12.50
2018-11-05T16:01:47.664Z,12.50
2018-11-05T16:04:17.664Z,12.50
2018-11-05T16:06:47.508Z,12.50
2018-11-05T16:09:17.613Z,12.40
2018-11-05T16:11:47.696Z,12.40
2018-11-05T16:14:17.541Z,12.40
2018-11-05T16:16:47.609Z,12.40
2018-11-05T16:19:17.635Z,12.40
2018-11-05T16:21:48.004Z,12.30
2018-11-05T16:24:19.958Z,12.30
2018-11-05T16:27:02.330Z,12.40
2018-11-05T16:29:32.645Z,12.40
2018-11-05T16:32:02.424Z,12.30
2018-11-05T16:34:36.445Z,12.30
2018-11-05T16:37:06.549Z,12.30
2018-11-05T16:39:37.137Z,12.30
2018-11-05T16:42:07.547Z,12.30
2018-11-05T16:44:37.661Z,12.20
2018-11-05T16:47:07.680Z,12.20
2018-11-05T16:49:37.764Z,12.20
2018-11-05T16:52:09.488Z,12.10
2018-11-05T16:54:41.862Z,12.10
2018-11-05T16:57:14.466Z,12.10
2018-11-05T16:59:45.767Z,12.10
2018-11-05T17:02:18.193Z,12.10
2018-11-05T17:04:49.021Z,12.10
2018-11-05T17:07:19.539Z,12.10
2018-11-05T17:09:55.496Z,12.10
2018-11-05T17:12:25.719Z,12.00
2018-11-05T17:14:56.486Z,12.10
2018-11-05T17:17:27.790Z,12.10
2018-11-05T17:20:03.470Z,12.10
2018-11-05T17:22:33.781Z,12.10
2018-11-05T17:25:06.686Z,12.10
2018-11-05T17:27:37.658Z,12.10
2018-11-05T17:30:12.325Z,12.10
2018-11-05T17:32:42.981Z,12.10
2018-11-05T17:35:13.375Z,12.10
2018-11-05T17:37:44.350Z,12.10
2018-11-05T17:40:20.119Z,12.10
2018-11-05T17:42:49.639Z,12.10
2018-11-05T17:45:20.370Z,12.10
2018-11-05T17:47:50.629Z,12.00
2018-11-05T17:50:21.865Z,11.90
2018-11-05T17:52:51.761Z,11.90
2018-11-05T17:55:23.734Z,11.70
2018-11-05T17:57:53.491Z,11.70
2018-11-05T18:00:26.092Z,11.60
2018-11-05T18:02:56.564Z,11.70
2018-11-05T18:05:26.663Z,11.60
2018-11-05T18:07:56.890Z,11.60
2018-11-05T18:10:26.685Z,11.60
2018-11-05T18:12:56.843Z,11.60
2018-11-05T18:15:27.221Z,11.60
2018-11-05T18:17:57.579Z,11.60
2018-11-05T18:20:27.884Z,11.60
2018-11-05T18:22:58.065Z,11.60
2018-11-05T18:25:28.359Z,11.60
2018-11-05T18:27:58.744Z,11.60
2018-11-05T18:30:28.628Z,11.60
2018-11-05T18:32:59.046Z,11.60
2018-11-05T18:35:34.020Z,11.50
2018-11-05T18:38:03.842Z,11.60
2018-11-05T18:40:33.782Z,11.60
2018-11-05T18:43:04.032Z,11.50
2018-11-05T18:45:34.156Z,11.50
2018-11-05T18:48:05.279Z,11.60
2018-11-05T18:50:35.709Z,11.50
2018-11-05T18:53:06.532Z,11.50
2018-11-05T18:55:36.822Z,11.50
2018-11-05T18:58:11.019Z,11.40
2018-11-05T19:00:46.586Z,11.30
2018-11-05T19:03:16.415Z,11.30
2018-11-05T19:05:46.941Z,11.30
2018-11-05T19:08:16.822Z,11.30
2018-11-05T19:10:47.016Z,11.20
2018-11-05T19:13:17.200Z,11.20
2018-11-05T19:15:48.335Z,11.20
2018-11-05T19:18:18.781Z,11.20
2018-11-05T19:20:53.847Z,11.10
2018-11-05T19:23:24.145Z,11.10
2018-11-05T19:25:54.485Z,11.10
2018-11-05T19:28:25.040Z,11.00
2018-11-05T19:30:55.191Z,11.00
2018-11-05T19:33:25.323Z,11.00
2018-11-05T19:35:55.098Z,11.00
2018-11-05T19:38:25.131Z,11.10
2018-11-05T19:40:55.200Z,11.10
2018-11-05T19:43:29.500Z,11.00
2018-11-05T19:46:04.010Z,11.10
2018-11-05T19:48:34.420Z,11.00
2018-11-05T19:51:04.072Z,11.00
2018-11-05T19:53:33.941Z,11.10
2018-11-05T19:56:03.927Z,11.10
2018-11-05T19:58:33.748Z,11.00
2018-11-05T20:03:38.600Z,11.10
2018-11-05T20:06:09.986Z,11.10
2018-11-05T20:08:40.484Z,11.10
2018-11-05T20:13:44.802Z,11.10
2018-11-05T20:16:15.205Z,11.10
2018-11-05T20:18:52.717Z,11.20
2018-11-05T20:23:56.968Z,11.20
2018-11-05T20:26:27.871Z,11.10
2018-11-05T20:28:57.912Z,11.10
2018-11-05T20:31:28.065Z,11.10
2018-11-05T20:33:58.264Z,11.10
2018-11-05T20:36:28.305Z,11.10
2018-11-05T20:39:04.363Z,11.00
2018-11-05T20:41:34.569Z,11.00
2018-11-05T20:44:08.164Z,10.90
2018-11-05T20:46:38.031Z,10.90
2018-11-05T20:49:08.425Z,10.90
2018-11-05T20:51:38.861Z,10.80
2018-11-05T20:54:15.882Z,10.70
2018-11-05T20:56:47.607Z,10.70
2018-11-05T20:59:17.605Z,10.70
2018-11-05T21:01:47.603Z,10.70
2018-11-05T21:04:17.644Z,10.70
2018-11-05T21:06:47.802Z,10.80
2018-11-05T21:09:22.143Z,10.80
2018-11-05T21:11:53.123Z,10.80
2018-11-05T21:14:27.073Z,10.80
2018-11-05T21:16:59.072Z,10.70
2018-11-05T21:19:29.188Z,10.70
2018-11-05T21:21:59.474Z,10.70
2018-11-05T21:24:29.540Z,10.70
2018-11-05T21:26:59.706Z,10.70
2018-11-05T21:29:29.601Z,10.70
2018-11-05T21:31:59.521Z,10.70
2018-11-05T21:34:29.583Z,10.70
2018-11-05T21:37:00.748Z,10.60
2018-11-05T21:39:30.860Z,10.60
2018-11-05T21:42:00.631Z,10.60
2018-11-05T21:44:30.454Z,10.60
2018-11-05T21:47:00.666Z,10.60
2018-11-05T21:49:30.707Z,10.60
2018-11-05T21:52:00.529Z,10.60
2018-11-05T21:54:30.682Z,10.60
2018-11-05T21:57:00.159Z,10.60
2018-11-05T21:59:33.937Z,10.60
2018-11-05T22:02:04.357Z,10.70
2018-11-05T22:04:34.486Z,10.70
2018-11-05T22:07:04.562Z,10.60
2018-11-05T22:09:34.556Z,10.70
2018-11-05T22:12:04.643Z,10.70
2018-11-05T22:14:34.664Z,10.60
2018-11-05T22:17:04.681Z,10.60
2018-11-05T22:22:08.264Z,10.50
2018-11-05T22:24:37.964Z,10.60
2018-11-05T22:27:17.060Z,10.60
2018-11-05T22:29:46.924Z,10.60
2018-11-05T22:32:16.804Z,10.60
2018-11-05T22:34:46.564Z,10.60
2018-11-05T22:37:17.021Z,10.60
2018-11-05T22:39:47.026Z,10.60
2018-11-05T22:42:17.047Z,10.60
2018-11-05T22:44:47.206Z,10.60
2018-11-05T22:47:17.165Z,10.70
2018-11-05T22:49:47.284Z,10.70
2018-11-05T22:52:19.023Z,10.70
2018-11-05T22:54:49.243Z,10.70
2018-11-05T22:57:19.183Z,10.70
2018-11-05T22:59:48.944Z,10.70
2018-11-05T23:02:19.150Z,10.80
2018-11-05T23:04:49.440Z,10.70
2018-11-05T23:07:19.259Z,10.70
2018-11-05T23:09:49.220Z,10.80
2018-11-05T23:12:23.640Z,10.70
2018-11-05T23:14:53.979Z,10.70
2018-11-05T23:17:24.165Z,10.60
2018-11-05T23:19:58.398Z,10.60
2018-11-05T23:22:32.758Z,10.60
2018-11-05T23:25:03.043Z,10.70
2018-11-05T23:27:37.179Z,10.70
2018-11-05T23:30:09.418Z,10.70
2018-11-05T23:32:40.278Z,10.70
2018-11-05T23:35:11.058Z,10.70
2018-11-05T23:37:42.218Z,10.70
2018-11-05T23:40:12.339Z,10.70
2018-11-05T23:42:42.318Z,10.70
2018-11-05T23:45:16.818Z,10.60
2018-11-05T23:47:47.099Z,10.70
2018-11-05T23:50:17.441Z,10.70
2018-11-05T23:52:47.498Z,10.70
2018-11-05T23:55:17.379Z,10.70
2018-11-05T23:57:47.678Z,10.70
